sensor_id;sensor_type;location;lat;lon;timestamp;P1;durP1;ratioP1;P2;durP2;ratioP2
25962;SDS011;13760;52.588;13.406;2024-01-15T00:00:39;26.50;;;16.30;;
25962;SDS011;13760;52.588;13.406;2024-01-15T00:03:05;29.15;;;16.05;;
25962;SDS011;13760;52.588;13.406;2024-01-15T00:05:30;27.35;;;15.57;;
25962;SDS011;13760;52.588;13.406;2024-01-15T00:07:55;29.35;;;16.48;;
25962;SDS011;13760;52.588;13.406;2024-01-15T00:10:21;28.52;;;15.18;;
25962;SDS011;13760;52.588;13.406;2024-01-15T00:12:46;27.33;;;14.55;;
25962;SDS011;13760;52.588;13.406;2024-01-15T00:15:12;32.40;;;16.75;;
25962;SDS011;13760;52.588;13.406;2024-01-15T00:17:38;30.58;;;16.00;;
25962;SDS011;13760;52.588;13.406;2024-01-15T00:20:04;26.20;;;15.10;;
25962;SDS011;13760;52.588;13.406;2024-01-15T00:22:30;27.88;;;15.60;;
25962;SDS011;13760;52.588;13.406;2024-01-15T00:24:55;31.75;;;16.60;;
25962;SDS011;13760;52.588;13.406;2024-01-15T00:27:21;27.90;;;15.18;;
25962;SDS011;13760;52.588;13.406;2024-01-15T00:29:47;30.67;;;15.98;;
25962;SDS011;13760;52.588;13.406;2024-01-15T00:32:13;27.30;;;15.68;;
25962;SDS011;13760;52.588;13.406;2024-01-15T00:34:38;27.38;;;16.27;;
25962;SDS011;13760;52.588;13.406;2024-01-15T00:37:04;27.95;;;15.65;;
25962;SDS011;13760;52.588;13.406;2024-01-15T00:39:31;25.80;;;14.82;;
25962;SDS011;13760;52.588;13.406;2024-01-15T00:41:57;27.48;;;15.52;;
25962;SDS011;13760;52.588;13.406;2024-01-15T00:44:23;27.30;;;15.80;;
25962;SDS011;13760;52.588;13.406;2024-01-15T00:46:48;27.42;;;14.75;;
25962;SDS011;13760;52.588;13.406;2024-01-15T00:49:14;24.70;;;14.38;;
25962;SDS011;13760;52.588;13.406;2024-01-15T00:51:40;23.42;;;14.07;;
25962;SDS011;13760;52.588;13.406;2024-01-15T00:54:05;25.73;;;14.32;;
25962;SDS011;13760;52.588;13.406;2024-01-15T00:56:31;29.55;;;14.73;;
25962;SDS011;13760;52.588;13.406;2024-01-15T00:58:57;30.38;;;15.35;;
25962;SDS011;13760;52.588;13.406;2024-01-15T01:01:22;25.58;;;14.70;;
25962;SDS011;13760;52.588;13.406;2024-01-15T01:03:48;26.00;;;15.02;;
25962;SDS011;13760;52.588;13.406;2024-01-15T01:06:13;29.10;;;15.60;;
25962;SDS011;13760;52.588;13.406;2024-01-15T01:08:39;29.30;;;15.75;;
25962;SDS011;13760;52.588;13.406;2024-01-15T01:11:04;30.05;;;15.27;;
25962;SDS011;13760;52.588;13.406;2024-01-15T01:13:31;27.55;;;15.07;;
25962;SDS011;13760;52.588;13.406;2024-01-15T01:15:57;28.80;;;15.45;;
25962;SDS011;13760;52.588;13.406;2024-01-15T01:18:23;30.95;;;15.07;;
25962;SDS011;13760;52.588;13.406;2024-01-15T01:20:48;28.80;;;15.32;;
25962;SDS011;13760;52.588;13.406;2024-01-15T01:23:14;29.70;;;15.50;;
25962;SDS011;13760;52.588;13.406;2024-01-15T01:25:39;28.95;;;15.48;;
25962;SDS011;13760;52.588;13.406;2024-01-15T01:28:05;30.58;;;15.38;;
25962;SDS011;13760;52.588;13.406;2024-01-15T01:30:30;29.73;;;15.70;;
25962;SDS011;13760;52.588;13.406;2024-01-15T01:32:56;31.40;;;16.50;;
25962;SDS011;13760;52.588;13.406;2024-01-15T01:35:22;31.30;;;15.73;;
25962;SDS011;13760;52.588;13.406;2024-01-15T01:37:47;32.38;;;15.85;;
25962;SDS011;13760;52.588;13.406;2024-01-15T01:40:13;31.65;;;16.42;;
25962;SDS011;13760;52.588;13.406;2024-01-15T01:42:39;31.75;;;15.32;;
25962;SDS011;13760;52.588;13.406;2024-01-15T01:45:04;27.88;;;15.02;;
25962;SDS011;13760;52.588;13.406;2024-01-15T01:47:30;27.08;;;15.13;;
25962;SDS011;13760;52.588;13.406;2024-01-15T01:49:57;30.38;;;13.63;;
25962;SDS011;13760;52.588;13.406;2024-01-15T01:52:22;28.20;;;14.48;;
25962;SDS011;13760;52.588;13.406;2024-01-15T01:54:48;26.95;;;13.55;;
25962;SDS011;13760;52.588;13.406;2024-01-15T01:57:14;27.80;;;13.40;;
25962;SDS011;13760;52.588;13.406;2024-01-15T01:59:41;24.95;;;13.55;;
25962;SDS011;13760;52.588;13.406;2024-01-15T02:02:07;24.40;;;13.27;;
25962;SDS011;13760;52.588;13.406;2024-01-15T02:04:33;28.33;;;14.73;;
25962;SDS011;13760;52.588;13.406;2024-01-15T02:06:59;25.00;;;13.05;;
25962;SDS011;13760;52.588;13.406;2024-01-15T02:09:25;30.10;;;13.13;;
25962;SDS011;13760;52.588;13.406;2024-01-15T02:11:50;27.83;;;12.95;;
25962;SDS011;13760;52.588;13.406;2024-01-15T02:14:16;27.33;;;12.98;;
25962;SDS011;13760;52.588;13.406;2024-01-15T02:16:42;24.48;;;12.05;;
25962;SDS011;13760;52.588;13.406;2024-01-15T02:19:10;27.65;;;12.48;;
25962;SDS011;13760;52.588;13.406;2024-01-15T02:21:40;25.00;;;12.48;;
25962;SDS011;13760;52.588;13.406;2024-01-15T02:24:05;25.08;;;12.23;;
25962;SDS011;13760;52.588;13.406;2024-01-15T02:26:31;27.20;;;12.98;;
25962;SDS011;13760;52.588;13.406;2024-01-15T02:29:00;23.35;;;12.18;;
25962;SDS011;13760;52.588;13.406;2024-01-15T02:31:26;20.23;;;11.27;;
25962;SDS011;13760;52.588;13.406;2024-01-15T02:33:52;27.80;;;11.80;;
25962;SDS011;13760;52.588;13.406;2024-01-15T02:36:17;24.38;;;11.93;;
25962;SDS011;13760;52.588;13.406;2024-01-15T02:38:43;18.70;;;10.57;;
25962;SDS011;13760;52.588;13.406;2024-01-15T02:41:08;24.63;;;10.15;;
25962;SDS011;13760;52.588;13.406;2024-01-15T02:43:34;23.55;;;10.23;;
25962;SDS011;13760;52.588;13.406;2024-01-15T02:45:59;24.27;;;8.90;;
25962;SDS011;13760;52.588;13.406;2024-01-15T02:48:25;18.70;;;9.20;;
25962;SDS011;13760;52.588;13.406;2024-01-15T02:50:50;18.52;;;8.98;;
25962;SDS011;13760;52.588;13.406;2024-01-15T02:53:16;15.45;;;9.23;;
25962;SDS011;13760;52.588;13.406;2024-01-15T02:55:41;17.05;;;8.73;;
25962;SDS011;13760;52.588;13.406;2024-01-15T02:58:07;17.75;;;8.48;;
25962;SDS011;13760;52.588;13.406;2024-01-15T03:00:32;18.48;;;9.18;;
25962;SDS011;13760;52.588;13.406;2024-01-15T03:02:58;18.25;;;7.75;;
25962;SDS011;13760;52.588;13.406;2024-01-15T03:05:23;16.40;;;8.48;;
25962;SDS011;13760;52.588;13.406;2024-01-15T03:07:49;13.77;;;7.38;;
25962;SDS011;13760;52.588;13.406;2024-01-15T03:10:14;14.20;;;8.32;;
25962;SDS011;13760;52.588;13.406;2024-01-15T03:12:40;17.17;;;7.97;;
25962;SDS011;13760;52.588;13.406;2024-01-15T03:15:05;15.10;;;7.72;;
25962;SDS011;13760;52.588;13.406;2024-01-15T03:17:31;17.08;;;7.82;;
25962;SDS011;13760;52.588;13.406;2024-01-15T03:19:57;20.15;;;8.70;;
25962;SDS011;13760;52.588;13.406;2024-01-15T03:22:22;16.60;;;8.27;;
25962;SDS011;13760;52.588;13.406;2024-01-15T03:24:48;25.90;;;8.20;;
25962;SDS011;13760;52.588;13.406;2024-01-15T03:27:13;16.75;;;7.55;;
25962;SDS011;13760;52.588;13.406;2024-01-15T03:29:39;16.88;;;7.95;;
25962;SDS011;13760;52.588;13.406;2024-01-15T03:32:05;17.27;;;8.10;;
25962;SDS011;13760;52.588;13.406;2024-01-15T03:34:31;17.60;;;8.05;;
25962;SDS011;13760;52.588;13.406;2024-01-15T03:36:56;18.45;;;8.35;;
25962;SDS011;13760;52.588;13.406;2024-01-15T03:39:22;15.07;;;7.22;;
25962;SDS011;13760;52.588;13.406;2024-01-15T03:41:47;16.98;;;7.95;;
25962;SDS011;13760;52.588;13.406;2024-01-15T03:44:13;16.77;;;8.02;;
25962;SDS011;13760;52.588;13.406;2024-01-15T03:46:38;18.83;;;8.25;;
25962;SDS011;13760;52.588;13.406;2024-01-15T03:49:04;18.35;;;7.88;;
25962;SDS011;13760;52.588;13.406;2024-01-15T03:51:29;16.95;;;8.27;;
25962;SDS011;13760;52.588;13.406;2024-01-15T03:53:55;15.35;;;7.38;;
25962;SDS011;13760;52.588;13.406;2024-01-15T03:56:20;18.05;;;7.70;;
25962;SDS011;13760;52.588;13.406;2024-01-15T03:58:46;17.13;;;8.05;;
25962;SDS011;13760;52.588;13.406;2024-01-15T04:01:11;16.38;;;7.38;;
25962;SDS011;13760;52.588;13.406;2024-01-15T04:03:37;18.17;;;7.47;;
25962;SDS011;13760;52.588;13.406;2024-01-15T04:06:03;18.15;;;7.75;;
25962;SDS011;13760;52.588;13.406;2024-01-15T04:08:29;18.23;;;6.70;;
25962;SDS011;13760;52.588;13.406;2024-01-15T04:10:54;17.33;;;7.15;;
25962;SDS011;13760;52.588;13.406;2024-01-15T04:13:20;18.05;;;7.30;;
25962;SDS011;13760;52.588;13.406;2024-01-15T04:15:46;17.42;;;7.38;;
25962;SDS011;13760;52.588;13.406;2024-01-15T04:18:12;18.70;;;7.40;;
25962;SDS011;13760;52.588;13.406;2024-01-15T04:20:37;17.63;;;7.40;;
25962;SDS011;13760;52.588;13.406;2024-01-15T04:23:03;14.70;;;7.13;;
25962;SDS011;13760;52.588;13.406;2024-01-15T04:25:29;15.98;;;6.70;;
25962;SDS011;13760;52.588;13.406;2024-01-15T04:27:54;16.45;;;7.35;;
25962;SDS011;13760;52.588;13.406;2024-01-15T04:30:20;15.90;;;7.30;;
25962;SDS011;13760;52.588;13.406;2024-01-15T04:32:45;15.07;;;6.72;;
25962;SDS011;13760;52.588;13.406;2024-01-15T04:35:11;15.88;;;7.05;;
25962;SDS011;13760;52.588;13.406;2024-01-15T04:37:37;16.10;;;7.05;;
25962;SDS011;13760;52.588;13.406;2024-01-15T04:40:04;15.85;;;6.40;;
25962;SDS011;13760;52.588;13.406;2024-01-15T04:42:30;14.23;;;5.68;;
25962;SDS011;13760;52.588;13.406;2024-01-15T04:44:55;22.77;;;6.78;;
25962;SDS011;13760;52.588;13.406;2024-01-15T04:47:21;17.75;;;5.90;;
25962;SDS011;13760;52.588;13.406;2024-01-15T04:49:47;14.82;;;5.57;;
25962;SDS011;13760;52.588;13.406;2024-01-15T04:52:14;15.00;;;5.57;;
25962;SDS011;13760;52.588;13.406;2024-01-15T04:54:39;19.15;;;5.68;;
25962;SDS011;13760;52.588;13.406;2024-01-15T04:57:05;16.80;;;5.57;;
25962;SDS011;13760;52.588;13.406;2024-01-15T04:59:30;15.55;;;5.47;;
25962;SDS011;13760;52.588;13.406;2024-01-15T05:01:56;13.30;;;5.75;;
25962;SDS011;13760;52.588;13.406;2024-01-15T05:04:21;20.83;;;5.25;;
25962;SDS011;13760;52.588;13.406;2024-01-15T05:06:47;14.88;;;5.63;;
25962;SDS011;13760;52.588;13.406;2024-01-15T05:09:12;16.10;;;5.70;;
25962;SDS011;13760;52.588;13.406;2024-01-15T05:11:38;12.75;;;5.03;;
25962;SDS011;13760;52.588;13.406;2024-01-15T05:14:04;16.45;;;4.45;;
25962;SDS011;13760;52.588;13.406;2024-01-15T05:16:30;14.57;;;4.50;;
25962;SDS011;13760;52.588;13.406;2024-01-15T05:18:55;14.05;;;4.32;;
25962;SDS011;13760;52.588;13.406;2024-01-15T05:21:21;14.60;;;4.13;;
25962;SDS011;13760;52.588;13.406;2024-01-15T05:23:46;14.02;;;4.00;;
25962;SDS011;13760;52.588;13.406;2024-01-15T05:26:12;14.13;;;4.13;;
25962;SDS011;13760;52.588;13.406;2024-01-15T05:28:37;14.68;;;4.93;;
25962;SDS011;13760;52.588;13.406;2024-01-15T05:31:06;12.50;;;3.90;;
25962;SDS011;13760;52.588;13.406;2024-01-15T05:33:31;11.25;;;3.95;;
25962;SDS011;13760;52.588;13.406;2024-01-15T05:35:57;17.20;;;3.97;;
25962;SDS011;13760;52.588;13.406;2024-01-15T05:38:23;11.13;;;3.80;;
25962;SDS011;13760;52.588;13.406;2024-01-15T05:40:49;11.95;;;3.40;;
25962;SDS011;13760;52.588;13.406;2024-01-15T05:43:14;14.85;;;3.72;;
25962;SDS011;13760;52.588;13.406;2024-01-15T05:45:42;11.38;;;3.55;;
25962;SDS011;13760;52.588;13.406;2024-01-15T05:48:08;12.93;;;3.33;;
25962;SDS011;13760;52.588;13.406;2024-01-15T05:50:33;11.00;;;3.53;;
25962;SDS011;13760;52.588;13.406;2024-01-15T05:52:59;15.85;;;3.92;;
25962;SDS011;13760;52.588;13.406;2024-01-15T05:55:25;10.38;;;3.22;;
25962;SDS011;13760;52.588;13.406;2024-01-15T05:57:50;10.32;;;3.20;;
25962;SDS011;13760;52.588;13.406;2024-01-15T06:00:16;14.85;;;2.95;;
25962;SDS011;13760;52.588;13.406;2024-01-15T06:02:41;8.98;;;3.05;;
25962;SDS011;13760;52.588;13.406;2024-01-15T06:05:07;8.32;;;2.50;;
25962;SDS011;13760;52.588;13.406;2024-01-15T06:07:34;12.80;;;2.53;;
25962;SDS011;13760;52.588;13.406;2024-01-15T06:10:00;12.00;;;3.10;;
25962;SDS011;13760;52.588;13.406;2024-01-15T06:12:26;16.50;;;3.20;;
25962;SDS011;13760;52.588;13.406;2024-01-15T06:14:52;10.93;;;3.10;;
25962;SDS011;13760;52.588;13.406;2024-01-15T06:17:18;17.52;;;3.17;;
25962;SDS011;13760;52.588;13.406;2024-01-15T06:19:44;13.48;;;3.20;;
25962;SDS011;13760;52.588;13.406;2024-01-15T06:22:09;15.65;;;2.80;;
25962;SDS011;13760;52.588;13.406;2024-01-15T06:24:34;12.77;;;2.85;;
25962;SDS011;13760;52.588;13.406;2024-01-15T06:27:00;13.68;;;2.85;;
25962;SDS011;13760;52.588;13.406;2024-01-15T06:29:28;14.35;;;3.03;;
25962;SDS011;13760;52.588;13.406;2024-01-15T06:31:55;9.20;;;2.10;;
25962;SDS011;13760;52.588;13.406;2024-01-15T06:34:20;9.13;;;2.38;;
25962;SDS011;13760;52.588;13.406;2024-01-15T06:36:46;10.25;;;2.53;;
25962;SDS011;13760;52.588;13.406;2024-01-15T06:39:11;15.32;;;3.13;;
25962;SDS011;13760;52.588;13.406;2024-01-15T06:41:37;8.55;;;2.65;;
25962;SDS011;13760;52.588;13.406;2024-01-15T06:44:08;8.63;;;2.45;;
25962;SDS011;13760;52.588;13.406;2024-01-15T06:46:34;10.43;;;2.30;;
25962;SDS011;13760;52.588;13.406;2024-01-15T06:49:00;9.85;;;2.42;;
25962;SDS011;13760;52.588;13.406;2024-01-15T06:51:25;11.10;;;2.90;;
25962;SDS011;13760;52.588;13.406;2024-01-15T06:53:51;10.27;;;2.42;;
25962;SDS011;13760;52.588;13.406;2024-01-15T06:56:17;10.15;;;3.20;;
25962;SDS011;13760;52.588;13.406;2024-01-15T06:58:42;12.60;;;2.97;;
25962;SDS011;13760;52.588;13.406;2024-01-15T07:01:08;16.60;;;3.22;;
25962;SDS011;13760;52.588;13.406;2024-01-15T07:03:33;11.20;;;2.63;;
25962;SDS011;13760;52.588;13.406;2024-01-15T07:05:59;12.43;;;2.28;;
25962;SDS011;13760;52.588;13.406;2024-01-15T07:08:24;10.55;;;3.03;;
25962;SDS011;13760;52.588;13.406;2024-01-15T07:10:50;8.65;;;2.40;;
25962;SDS011;13760;52.588;13.406;2024-01-15T07:13:15;11.13;;;2.42;;
25962;SDS011;13760;52.588;13.406;2024-01-15T07:15:41;10.85;;;2.53;;
25962;SDS011;13760;52.588;13.406;2024-01-15T07:18:06;14.77;;;2.20;;
25962;SDS011;13760;52.588;13.406;2024-01-15T07:20:32;9.05;;;2.28;;
25962;SDS011;13760;52.588;13.406;2024-01-15T07:22:57;10.20;;;2.60;;
25962;SDS011;13760;52.588;13.406;2024-01-15T07:25:23;17.30;;;2.58;;
25962;SDS011;13760;52.588;13.406;2024-01-15T07:27:51;12.45;;;2.75;;
25962;SDS011;13760;52.588;13.406;2024-01-15T07:30:16;9.90;;;2.70;;
25962;SDS011;13760;52.588;13.406;2024-01-15T07:32:42;12.90;;;2.50;;
25962;SDS011;13760;52.588;13.406;2024-01-15T07:35:07;13.80;;;2.67;;
25962;SDS011;13760;52.588;13.406;2024-01-15T07:37:33;15.63;;;2.70;;
25962;SDS011;13760;52.588;13.406;2024-01-15T07:39:59;17.45;;;2.33;;
25962;SDS011;13760;52.588;13.406;2024-01-15T07:42:25;21.15;;;3.45;;
25962;SDS011;13760;52.588;13.406;2024-01-15T07:44:50;14.77;;;2.30;;
25962;SDS011;13760;52.588;13.406;2024-01-15T07:47:16;19.33;;;2.67;;
25962;SDS011;13760;52.588;13.406;2024-01-15T07:49:42;17.75;;;2.92;;
25962;SDS011;13760;52.588;13.406;2024-01-15T07:52:07;16.05;;;2.40;;
25962;SDS011;13760;52.588;13.406;2024-01-15T07:54:33;15.25;;;2.40;;
25962;SDS011;13760;52.588;13.406;2024-01-15T07:57:00;15.85;;;2.45;;
25962;SDS011;13760;52.588;13.406;2024-01-15T07:59:27;15.80;;;2.45;;
25962;SDS011;13760;52.588;13.406;2024-01-15T08:01:53;13.70;;;2.92;;
25962;SDS011;13760;52.588;13.406;2024-01-15T08:04:19;20.08;;;3.05;;
25962;SDS011;13760;52.588;13.406;2024-01-15T08:06:45;14.55;;;2.50;;
25962;SDS011;13760;52.588;13.406;2024-01-15T08:09:11;18.08;;;2.75;;
25962;SDS011;13760;52.588;13.406;2024-01-15T08:11:40;15.57;;;2.50;;
25962;SDS011;13760;52.588;13.406;2024-01-15T08:14:07;18.77;;;3.00;;
25962;SDS011;13760;52.588;13.406;2024-01-15T08:16:32;16.70;;;2.70;;
25962;SDS011;13760;52.588;13.406;2024-01-15T08:18:58;15.48;;;2.50;;
25962;SDS011;13760;52.588;13.406;2024-01-15T08:21:24;19.25;;;2.90;;
25962;SDS011;13760;52.588;13.406;2024-01-15T08:23:49;19.25;;;2.85;;
25962;SDS011;13760;52.588;13.406;2024-01-15T08:26:15;12.60;;;2.22;;
25962;SDS011;13760;52.588;13.406;2024-01-15T08:28:40;14.68;;;2.85;;
25962;SDS011;13760;52.588;13.406;2024-01-15T08:31:06;13.88;;;3.20;;
25962;SDS011;13760;52.588;13.406;2024-01-15T08:33:32;5.65;;;2.17;;
25962;SDS011;13760;52.588;13.406;2024-01-15T08:35:57;18.35;;;2.63;;
25962;SDS011;13760;52.588;13.406;2024-01-15T08:38:23;11.80;;;2.35;;
25962;SDS011;13760;52.588;13.406;2024-01-15T08:40:49;15.23;;;3.40;;
25962;SDS011;13760;52.588;13.406;2024-01-15T08:43:14;12.77;;;2.45;;
25962;SDS011;13760;52.588;13.406;2024-01-15T08:45:40;9.93;;;2.28;;
25962;SDS011;13760;52.588;13.406;2024-01-15T08:48:05;10.07;;;2.33;;
25962;SDS011;13760;52.588;13.406;2024-01-15T08:50:32;11.02;;;2.35;;
25962;SDS011;13760;52.588;13.406;2024-01-15T08:52:58;7.53;;;1.92;;
25962;SDS011;13760;52.588;13.406;2024-01-15T08:55:24;12.77;;;3.13;;
25962;SDS011;13760;52.588;13.406;2024-01-15T08:57:49;11.10;;;2.30;;
25962;SDS011;13760;52.588;13.406;2024-01-15T09:00:15;10.20;;;2.10;;
25962;SDS011;13760;52.588;13.406;2024-01-15T09:02:41;12.50;;;2.15;;
25962;SDS011;13760;52.588;13.406;2024-01-15T09:05:07;13.27;;;2.75;;
25962;SDS011;13760;52.588;13.406;2024-01-15T09:07:33;11.82;;;2.90;;
25962;SDS011;13760;52.588;13.406;2024-01-15T09:09:59;15.15;;;2.28;;
25962;SDS011;13760;52.588;13.406;2024-01-15T09:12:27;12.60;;;2.75;;
25962;SDS011;13760;52.588;13.406;2024-01-15T09:14:54;18.83;;;2.80;;
25962;SDS011;13760;52.588;13.406;2024-01-15T09:17:20;14.38;;;3.47;;
25962;SDS011;13760;52.588;13.406;2024-01-15T09:19:48;12.65;;;2.40;;
25962;SDS011;13760;52.588;13.406;2024-01-15T09:22:14;14.45;;;2.55;;
25962;SDS011;13760;52.588;13.406;2024-01-15T09:24:43;15.35;;;2.60;;
25962;SDS011;13760;52.588;13.406;2024-01-15T09:27:09;16.17;;;2.47;;
25962;SDS011;13760;52.588;13.406;2024-01-15T09:29:34;18.05;;;3.28;;
25962;SDS011;13760;52.588;13.406;2024-01-15T09:32:04;17.43;;;3.20;;
25962;SDS011;13760;52.588;13.406;2024-01-15T09:34:30;10.88;;;2.35;;
25962;SDS011;13760;52.588;13.406;2024-01-15T09:36:56;18.92;;;2.60;;
25962;SDS011;13760;52.588;13.406;2024-01-15T09:39:22;12.77;;;2.42;;
25962;SDS011;13760;52.588;13.406;2024-01-15T09:41:48;16.23;;;3.50;;
25962;SDS011;13760;52.588;13.406;2024-01-15T09:44:14;12.75;;;2.80;;
25962;SDS011;13760;52.588;13.406;2024-01-15T09:46:42;15.48;;;2.50;;
25962;SDS011;13760;52.588;13.406;2024-01-15T09:49:09;11.70;;;2.40;;
25962;SDS011;13760;52.588;13.406;2024-01-15T09:51:35;12.10;;;3.35;;
25962;SDS011;13760;52.588;13.406;2024-01-15T09:54:02;10.15;;;2.30;;
25962;SDS011;13760;52.588;13.406;2024-01-15T09:56:29;12.65;;;2.35;;
25962;SDS011;13760;52.588;13.406;2024-01-15T09:58:55;8.73;;;2.10;;
25962;SDS011;13760;52.588;13.406;2024-01-15T10:01:22;9.65;;;2.30;;
25962;SDS011;13760;52.588;13.406;2024-01-15T10:03:48;12.23;;;2.50;;
25962;SDS011;13760;52.588;13.406;2024-01-15T10:06:15;9.23;;;2.13;;
25962;SDS011;13760;52.588;13.406;2024-01-15T10:08:47;7.80;;;1.77;;
25962;SDS011;13760;52.588;13.406;2024-01-15T10:11:14;8.80;;;2.60;;
25962;SDS011;13760;52.588;13.406;2024-01-15T10:13:39;7.85;;;2.00;;
25962;SDS011;13760;52.588;13.406;2024-01-15T10:16:05;9.80;;;2.28;;
25962;SDS011;13760;52.588;13.406;2024-01-15T10:18:31;8.88;;;2.47;;
25962;SDS011;13760;52.588;13.406;2024-01-15T10:20:57;8.50;;;2.47;;
25962;SDS011;13760;52.588;13.406;2024-01-15T10:23:23;10.07;;;1.90;;
25962;SDS011;13760;52.588;13.406;2024-01-15T10:25:49;12.55;;;2.33;;
25962;SDS011;13760;52.588;13.406;2024-01-15T10:28:16;5.72;;;2.03;;
25962;SDS011;13760;52.588;13.406;2024-01-15T10:30:44;5.88;;;1.98;;
25962;SDS011;13760;52.588;13.406;2024-01-15T10:33:09;7.70;;;1.92;;
25962;SDS011;13760;52.588;13.406;2024-01-15T10:35:36;7.88;;;1.98;;
25962;SDS011;13760;52.588;13.406;2024-01-15T10:38:02;6.70;;;2.15;;
25962;SDS011;13760;52.588;13.406;2024-01-15T10:40:30;8.18;;;2.38;;
25962;SDS011;13760;52.588;13.406;2024-01-15T10:42:56;9.80;;;2.22;;
25962;SDS011;13760;52.588;13.406;2024-01-15T10:45:22;10.00;;;2.20;;
25962;SDS011;13760;52.588;13.406;2024-01-15T10:47:48;6.47;;;2.45;;
25962;SDS011;13760;52.588;13.406;2024-01-15T10:50:14;8.68;;;2.10;;
25962;SDS011;13760;52.588;13.406;2024-01-15T10:52:40;6.47;;;2.13;;
25962;SDS011;13760;52.588;13.406;2024-01-15T10:55:07;9.13;;;1.90;;
25962;SDS011;13760;52.588;13.406;2024-01-15T10:57:34;7.90;;;1.90;;
25962;SDS011;13760;52.588;13.406;2024-01-15T11:00:06;6.80;;;1.90;;
25962;SDS011;13760;52.588;13.406;2024-01-15T11:02:36;7.90;;;1.90;;
25962;SDS011;13760;52.588;13.406;2024-01-15T11:05:03;7.47;;;1.90;;
25962;SDS011;13760;52.588;13.406;2024-01-15T11:07:31;9.00;;;1.67;;
25962;SDS011;13760;52.588;13.406;2024-01-15T11:09:57;6.18;;;1.98;;
25962;SDS011;13760;52.588;13.406;2024-01-15T11:12:26;4.53;;;2.00;;
25962;SDS011;13760;52.588;13.406;2024-01-15T11:14:51;4.45;;;1.33;;
25962;SDS011;13760;52.588;13.406;2024-01-15T11:17:19;5.82;;;1.55;;
25962;SDS011;13760;52.588;13.406;2024-01-15T11:19:45;6.28;;;1.33;;
25962;SDS011;13760;52.588;13.406;2024-01-15T11:22:47;3.20;;;1.00;;
25962;SDS011;13760;52.588;13.406;2024-01-15T11:25:13;3.08;;;1.35;;
25962;SDS011;13760;52.588;13.406;2024-01-15T11:30:09;6.38;;;1.33;;
25962;SDS011;13760;52.588;13.406;2024-01-15T11:32:36;5.32;;;0.98;;
25962;SDS011;13760;52.588;13.406;2024-01-15T11:35:01;6.00;;;1.30;;
25962;SDS011;13760;52.588;13.406;2024-01-15T11:37:29;4.03;;;1.15;;
25962;SDS011;13760;52.588;13.406;2024-01-15T11:40:17;4.78;;;1.40;;
25962;SDS011;13760;52.588;13.406;2024-01-15T11:42:44;3.88;;;1.30;;
25962;SDS011;13760;52.588;13.406;2024-01-15T11:45:10;3.95;;;1.30;;
25962;SDS011;13760;52.588;13.406;2024-01-15T11:47:42;3.35;;;1.23;;
25962;SDS011;13760;52.588;13.406;2024-01-15T11:50:22;5.40;;;1.25;;
25962;SDS011;13760;52.588;13.406;2024-01-15T11:52:55;3.83;;;1.23;;
25962;SDS011;13760;52.588;13.406;2024-01-15T11:55:34;5.70;;;1.48;;
25962;SDS011;13760;52.588;13.406;2024-01-15T11:58:06;4.65;;;1.90;;
25962;SDS011;13760;52.588;13.406;2024-01-15T12:00:34;3.92;;;1.77;;
25962;SDS011;13760;52.588;13.406;2024-01-15T12:02:59;8.30;;;2.00;;
25962;SDS011;13760;52.588;13.406;2024-01-15T12:05:27;5.95;;;2.28;;
25962;SDS011;13760;52.588;13.406;2024-01-15T12:07:52;3.58;;;1.90;;
25962;SDS011;13760;52.588;13.406;2024-01-15T12:10:18;3.47;;;1.75;;
25962;SDS011;13760;52.588;13.406;2024-01-15T12:13:05;2.42;;;1.40;;
25962;SDS011;13760;52.588;13.406;2024-01-15T12:15:38;4.43;;;1.30;;
25962;SDS011;13760;52.588;13.406;2024-01-15T12:18:07;2.67;;;1.65;;
25962;SDS011;13760;52.588;13.406;2024-01-15T12:20:33;4.93;;;1.52;;
25962;SDS011;13760;52.588;13.406;2024-01-15T12:22:59;3.35;;;1.48;;
25962;SDS011;13760;52.588;13.406;2024-01-15T12:25:26;4.93;;;1.70;;
25962;SDS011;13760;52.588;13.406;2024-01-15T12:27:53;4.35;;;1.92;;
25962;SDS011;13760;52.588;13.406;2024-01-15T12:30:20;3.97;;;1.85;;
25962;SDS011;13760;52.588;13.406;2024-01-15T12:32:45;2.67;;;1.50;;
25962;SDS011;13760;52.588;13.406;2024-01-15T12:35:12;5.70;;;1.73;;
25962;SDS011;13760;52.588;13.406;2024-01-15T12:37:39;2.75;;;1.42;;
25962;SDS011;13760;52.588;13.406;2024-01-15T12:40:05;8.23;;;1.42;;
25962;SDS011;13760;52.588;13.406;2024-01-15T12:42:50;2.67;;;1.30;;
25962;SDS011;13760;52.588;13.406;2024-01-15T12:45:15;4.85;;;1.30;;
25962;SDS011;13760;52.588;13.406;2024-01-15T12:47:42;2.22;;;1.35;;
25962;SDS011;13760;52.588;13.406;2024-01-15T12:50:11;8.50;;;1.70;;
25962;SDS011;13760;52.588;13.406;2024-01-15T12:52:37;7.05;;;2.20;;
25962;SDS011;13760;52.588;13.406;2024-01-15T12:55:05;6.18;;;1.23;;
25962;SDS011;13760;52.588;13.406;2024-01-15T12:57:32;2.60;;;1.20;;
25962;SDS011;13760;52.588;13.406;2024-01-15T12:59:57;3.00;;;1.50;;
25962;SDS011;13760;52.588;13.406;2024-01-15T13:02:23;3.60;;;1.45;;
25962;SDS011;13760;52.588;13.406;2024-01-15T13:04:49;4.35;;;1.67;;
25962;SDS011;13760;52.588;13.406;2024-01-15T13:07:14;2.75;;;1.17;;
25962;SDS011;13760;52.588;13.406;2024-01-15T13:09:40;4.03;;;1.30;;
25962;SDS011;13760;52.588;13.406;2024-01-15T13:12:05;3.65;;;1.55;;
25962;SDS011;13760;52.588;13.406;2024-01-15T13:14:31;4.15;;;1.67;;
25962;SDS011;13760;52.588;13.406;2024-01-15T13:16:58;2.97;;;1.23;;
25962;SDS011;13760;52.588;13.406;2024-01-15T13:19:24;5.72;;;1.60;;
25962;SDS011;13760;52.588;13.406;2024-01-15T13:21:49;4.03;;;1.58;;
25962;SDS011;13760;52.588;13.406;2024-01-15T13:24:16;4.53;;;1.42;;
25962;SDS011;13760;52.588;13.406;2024-01-15T13:26:42;2.42;;;1.50;;
25962;SDS011;13760;52.588;13.406;2024-01-15T13:29:07;3.60;;;1.38;;
25962;SDS011;13760;52.588;13.406;2024-01-15T13:31:33;7.80;;;1.67;;
25962;SDS011;13760;52.588;13.406;2024-01-15T13:33:59;4.05;;;1.08;;
25962;SDS011;13760;52.588;13.406;2024-01-15T13:36:25;3.97;;;1.42;;
25962;SDS011;13760;52.588;13.406;2024-01-15T13:38:51;3.33;;;1.48;;
25962;SDS011;13760;52.588;13.406;2024-01-15T13:41:18;3.60;;;1.40;;
25962;SDS011;13760;52.588;13.406;2024-01-15T13:43:48;3.08;;;1.40;;
25962;SDS011;13760;52.588;13.406;2024-01-15T13:46:14;2.78;;;1.33;;
25962;SDS011;13760;52.588;13.406;2024-01-15T13:48:40;5.78;;;1.35;;
25962;SDS011;13760;52.588;13.406;2024-01-15T13:51:05;4.00;;;1.35;;
25962;SDS011;13760;52.588;13.406;2024-01-15T13:53:31;3.47;;;1.40;;
25962;SDS011;13760;52.588;13.406;2024-01-15T13:55:57;3.40;;;1.42;;
25962;SDS011;13760;52.588;13.406;2024-01-15T13:58:22;4.10;;;1.40;;
25962;SDS011;13760;52.588;13.406;2024-01-15T14:00:47;3.85;;;1.63;;
25962;SDS011;13760;52.588;13.406;2024-01-15T14:03:13;6.75;;;1.73;;
25962;SDS011;13760;52.588;13.406;2024-01-15T14:05:39;2.88;;;1.45;;
25962;SDS011;13760;52.588;13.406;2024-01-15T14:08:05;3.78;;;1.58;;
25962;SDS011;13760;52.588;13.406;2024-01-15T14:10:31;5.75;;;1.60;;
25962;SDS011;13760;52.588;13.406;2024-01-15T14:12:56;7.75;;;1.52;;
25962;SDS011;13760;52.588;13.406;2024-01-15T14:15:22;3.65;;;1.40;;
25962;SDS011;13760;52.588;13.406;2024-01-15T14:17:47;6.20;;;1.65;;
25962;SDS011;13760;52.588;13.406;2024-01-15T14:20:13;5.25;;;1.63;;